sensor_id;sensor_type;location;lat;lon;timestamp;P1;durP1;ratioP1;P2;durP2;ratioP2
75928;SDS011;64606;44.062;2.986;2023-06-10T00:01:27;9.55;;;5.50;;
75928;SDS011;64606;44.062;2.986;2023-06-10T00:03:55;12.23;;;5.80;;
75928;SDS011;64606;44.062;2.986;2023-06-10T00:06:21;11.70;;;6.45;;
75928;SDS011;64606;44.062;2.986;2023-06-10T00:08:49;14.90;;;5.85;;
75928;SDS011;64606;44.062;2.986;2023-06-10T00:11:16;11.13;;;5.28;;
75928;SDS011;64606;44.062;2.986;2023-06-10T00:13:42;10.85;;;5.10;;
75928;SDS011;64606;44.062;2.986;2023-06-10T00:16:08;12.00;;;4.97;;
75928;SDS011;64606;44.062;2.986;2023-06-10T00:18:35;9.20;;;4.85;;
75928;SDS011;64606;44.062;2.986;2023-06-10T00:21:03;10.15;;;4.55;;
75928;SDS011;64606;44.062;2.986;2023-06-10T00:23:30;9.32;;;4.60;;
75928;SDS011;64606;44.062;2.986;2023-06-10T00:26:01;11.77;;;5.10;;
75928;SDS011;64606;44.062;2.986;2023-06-10T00:28:27;12.32;;;4.72;;
75928;SDS011;64606;44.062;2.986;2023-06-10T00:30:53;11.15;;;4.97;;
75928;SDS011;64606;44.062;2.986;2023-06-10T00:33:19;11.85;;;5.50;;
75928;SDS011;64606;44.062;2.986;2023-06-10T00:35:46;11.82;;;4.70;;
75928;SDS011;64606;44.062;2.986;2023-06-10T00:38:13;8.30;;;5.10;;
75928;SDS011;64606;44.062;2.986;2023-06-10T00:40:40;14.13;;;5.07;;
75928;SDS011;64606;44.062;2.986;2023-06-10T00:43:06;13.05;;;4.50;;
75928;SDS011;64606;44.062;2.986;2023-06-10T00:45:33;16.25;;;4.40;;
75928;SDS011;64606;44.062;2.986;2023-06-10T00:47:59;17.15;;;5.28;;
75928;SDS011;64606;44.062;2.986;2023-06-10T00:50:26;10.13;;;4.78;;
75928;SDS011;64606;44.062;2.986;2023-06-10T00:52:53;13.75;;;5.10;;
75928;SDS011;64606;44.062;2.986;2023-06-10T00:55:19;13.77;;;5.53;;
75928;SDS011;64606;44.062;2.986;2023-06-10T00:57:46;8.32;;;4.63;;
75928;SDS011;64606;44.062;2.986;2023-06-10T01:00:14;11.18;;;4.65;;
75928;SDS011;64606;44.062;2.986;2023-06-10T01:02:40;14.55;;;5.05;;
75928;SDS011;64606;44.062;2.986;2023-06-10T01:05:07;17.48;;;4.95;;
75928;SDS011;64606;44.062;2.986;2023-06-10T01:07:37;11.95;;;5.20;;
75928;SDS011;64606;44.062;2.986;2023-06-10T01:10:05;8.15;;;4.88;;
75928;SDS011;64606;44.062;2.986;2023-06-10T01:12:34;10.40;;;5.28;;
75928;SDS011;64606;44.062;2.986;2023-06-10T01:15:04;16.25;;;5.93;;
75928;SDS011;64606;44.062;2.986;2023-06-10T01:17:31;10.32;;;5.30;;
75928;SDS011;64606;44.062;2.986;2023-06-10T01:19:57;12.07;;;5.03;;
75928;SDS011;64606;44.062;2.986;2023-06-10T01:22:27;9.18;;;4.82;;
75928;SDS011;64606;44.062;2.986;2023-06-10T01:25:01;9.50;;;4.72;;
75928;SDS011;64606;44.062;2.986;2023-06-10T01:27:30;10.10;;;4.68;;
75928;SDS011;64606;44.062;2.986;2023-06-10T01:32:51;12.15;;;4.40;;
75928;SDS011;64606;44.062;2.986;2023-06-10T01:35:17;9.07;;;4.32;;
75928;SDS011;64606;44.062;2.986;2023-06-10T01:37:45;9.32;;;4.57;;
75928;SDS011;64606;44.062;2.986;2023-06-10T01:40:12;12.13;;;4.63;;
75928;SDS011;64606;44.062;2.986;2023-06-10T01:42:38;10.68;;;3.95;;
75928;SDS011;64606;44.062;2.986;2023-06-10T01:45:04;11.20;;;3.60;;
75928;SDS011;64606;44.062;2.986;2023-06-10T01:47:31;7.70;;;3.83;;
75928;SDS011;64606;44.062;2.986;2023-06-10T01:49:57;10.95;;;4.60;;
75928;SDS011;64606;44.062;2.986;2023-06-10T01:52:23;10.02;;;4.28;;
75928;SDS011;64606;44.062;2.986;2023-06-10T01:54:49;9.77;;;4.60;;
75928;SDS011;64606;44.062;2.986;2023-06-10T01:57:15;8.60;;;4.10;;
75928;SDS011;64606;44.062;2.986;2023-06-10T01:59:41;9.85;;;4.15;;
75928;SDS011;64606;44.062;2.986;2023-06-10T02:02:09;14.52;;;4.70;;
75928;SDS011;64606;44.062;2.986;2023-06-10T02:04:36;11.20;;;3.88;;
75928;SDS011;64606;44.062;2.986;2023-06-10T02:07:02;10.75;;;4.65;;
75928;SDS011;64606;44.062;2.986;2023-06-10T02:09:29;15.23;;;4.20;;
75928;SDS011;64606;44.062;2.986;2023-06-10T02:11:56;11.82;;;4.50;;
75928;SDS011;64606;44.062;2.986;2023-06-10T02:14:22;16.17;;;4.90;;
75928;SDS011;64606;44.062;2.986;2023-06-10T02:16:48;14.40;;;4.93;;
75928;SDS011;64606;44.062;2.986;2023-06-10T02:19:16;14.52;;;4.75;;
75928;SDS011;64606;44.062;2.986;2023-06-10T02:21:42;8.13;;;3.90;;
75928;SDS011;64606;44.062;2.986;2023-06-10T02:24:08;9.15;;;3.78;;
75928;SDS011;64606;44.062;2.986;2023-06-10T02:26:34;10.20;;;4.30;;
75928;SDS011;64606;44.062;2.986;2023-06-10T02:29:00;9.38;;;4.20;;
75928;SDS011;64606;44.062;2.986;2023-06-10T02:31:26;7.55;;;4.00;;
75928;SDS011;64606;44.062;2.986;2023-06-10T02:33:53;11.23;;;4.72;;
75928;SDS011;64606;44.062;2.986;2023-06-10T02:36:20;8.10;;;4.28;;
75928;SDS011;64606;44.062;2.986;2023-06-10T02:38:49;11.35;;;4.22;;
75928;SDS011;64606;44.062;2.986;2023-06-10T02:41:15;11.60;;;4.65;;
75928;SDS011;64606;44.062;2.986;2023-06-10T02:43:41;11.35;;;4.75;;
75928;SDS011;64606;44.062;2.986;2023-06-10T02:46:07;11.68;;;4.55;;
75928;SDS011;64606;44.062;2.986;2023-06-10T02:48:40;7.93;;;4.07;;
75928;SDS011;64606;44.062;2.986;2023-06-10T02:51:06;10.50;;;4.13;;
75928;SDS011;64606;44.062;2.986;2023-06-10T02:53:32;14.40;;;4.65;;
75928;SDS011;64606;44.062;2.986;2023-06-10T02:55:58;13.15;;;4.25;;
75928;SDS011;64606;44.062;2.986;2023-06-10T02:58:25;13.38;;;4.40;;
75928;SDS011;64606;44.062;2.986;2023-06-10T03:00:51;12.77;;;4.47;;
75928;SDS011;64606;44.062;2.986;2023-06-10T03:03:17;8.05;;;3.65;;
75928;SDS011;64606;44.062;2.986;2023-06-10T03:05:43;9.18;;;4.45;;
75928;SDS011;64606;44.062;2.986;2023-06-10T03:08:09;12.73;;;4.43;;
75928;SDS011;64606;44.062;2.986;2023-06-10T03:10:35;11.20;;;4.28;;
75928;SDS011;64606;44.062;2.986;2023-06-10T03:13:01;11.75;;;4.70;;
75928;SDS011;64606;44.062;2.986;2023-06-10T03:15:28;7.82;;;4.55;;
75928;SDS011;64606;44.062;2.986;2023-06-10T03:17:58;8.60;;;4.22;;
75928;SDS011;64606;44.062;2.986;2023-06-10T03:20:25;11.98;;;5.10;;
75928;SDS011;64606;44.062;2.986;2023-06-10T03:22:52;11.07;;;5.50;;
75928;SDS011;64606;44.062;2.986;2023-06-10T03:25:19;14.77;;;5.57;;
75928;SDS011;64606;44.062;2.986;2023-06-10T03:27:46;10.38;;;5.05;;
75928;SDS011;64606;44.062;2.986;2023-06-10T03:30:12;11.48;;;4.95;;
75928;SDS011;64606;44.062;2.986;2023-06-10T03:32:39;8.82;;;4.75;;
75928;SDS011;64606;44.062;2.986;2023-06-10T03:35:06;12.23;;;5.10;;
75928;SDS011;64606;44.062;2.986;2023-06-10T03:37:32;13.50;;;5.35;;
75928;SDS011;64606;44.062;2.986;2023-06-10T03:39:59;12.52;;;5.32;;
75928;SDS011;64606;44.062;2.986;2023-06-10T03:42:25;12.23;;;5.93;;
75928;SDS011;64606;44.062;2.986;2023-06-10T03:44:51;10.20;;;5.35;;
75928;SDS011;64606;44.062;2.986;2023-06-10T03:47:17;14.48;;;6.13;;
75928;SDS011;64606;44.062;2.986;2023-06-10T03:49:43;11.25;;;5.45;;
75928;SDS011;64606;44.062;2.986;2023-06-10T03:52:10;15.20;;;5.10;;
75928;SDS011;64606;44.062;2.986;2023-06-10T03:54:36;11.45;;;5.80;;
75928;SDS011;64606;44.062;2.986;2023-06-10T03:57:02;12.73;;;6.18;;
75928;SDS011;64606;44.062;2.986;2023-06-10T03:59:28;12.40;;;5.43;;
75928;SDS011;64606;44.062;2.986;2023-06-10T04:01:55;10.38;;;4.82;;
75928;SDS011;64606;44.062;2.986;2023-06-10T04:04:21;17.35;;;5.78;;
75928;SDS011;64606;44.062;2.986;2023-06-10T04:06:47;15.13;;;5.88;;
75928;SDS011;64606;44.062;2.986;2023-06-10T04:09:13;7.30;;;4.80;;
75928;SDS011;64606;44.062;2.986;2023-06-10T04:11:40;10.85;;;5.07;;
75928;SDS011;64606;44.062;2.986;2023-06-10T04:14:07;13.43;;;5.50;;
75928;SDS011;64606;44.062;2.986;2023-06-10T04:16:33;11.60;;;5.50;;
75928;SDS011;64606;44.062;2.986;2023-06-10T04:19:00;16.25;;;6.10;;
75928;SDS011;64606;44.062;2.986;2023-06-10T04:21:26;10.65;;;5.05;;
75928;SDS011;64606;44.062;2.986;2023-06-10T04:23:53;9.45;;;5.07;;
75928;SDS011;64606;44.062;2.986;2023-06-10T04:26:19;13.05;;;5.38;;
75928;SDS011;64606;44.062;2.986;2023-06-10T04:28:45;12.70;;;5.82;;
75928;SDS011;64606;44.062;2.986;2023-06-10T04:31:11;8.45;;;4.82;;
75928;SDS011;64606;44.062;2.986;2023-06-10T04:33:37;9.57;;;4.85;;
75928;SDS011;64606;44.062;2.986;2023-06-10T04:36:04;10.43;;;5.07;;
75928;SDS011;64606;44.062;2.986;2023-06-10T04:38:32;17.92;;;5.18;;
75928;SDS011;64606;44.062;2.986;2023-06-10T04:40:58;13.82;;;5.80;;
75928;SDS011;64606;44.062;2.986;2023-06-10T04:43:24;11.38;;;5.65;;
75928;SDS011;64606;44.062;2.986;2023-06-10T04:45:51;16.75;;;6.95;;
75928;SDS011;64606;44.062;2.986;2023-06-10T04:48:17;31.38;;;9.35;;
75928;SDS011;64606;44.062;2.986;2023-06-10T04:50:43;24.13;;;7.07;;
75928;SDS011;64606;44.062;2.986;2023-06-10T04:53:09;23.52;;;7.03;;
75928;SDS011;64606;44.062;2.986;2023-06-10T04:55:35;15.13;;;6.95;;
75928;SDS011;64606;44.062;2.986;2023-06-10T04:58:02;19.77;;;7.22;;
75928;SDS011;64606;44.062;2.986;2023-06-10T05:00:28;18.98;;;7.80;;
75928;SDS011;64606;44.062;2.986;2023-06-10T05:02:54;16.02;;;6.95;;
75928;SDS011;64606;44.062;2.986;2023-06-10T05:05:21;23.63;;;7.97;;
75928;SDS011;64606;44.062;2.986;2023-06-10T05:07:47;25.48;;;8.23;;
75928;SDS011;64606;44.062;2.986;2023-06-10T05:10:13;23.27;;;9.25;;
75928;SDS011;64606;44.062;2.986;2023-06-10T05:12:40;19.08;;;8.65;;
75928;SDS011;64606;44.062;2.986;2023-06-10T05:15:06;13.45;;;7.45;;
75928;SDS011;64606;44.062;2.986;2023-06-10T05:17:33;15.40;;;7.47;;
75928;SDS011;64606;44.062;2.986;2023-06-10T05:20:00;15.73;;;7.80;;
75928;SDS011;64606;44.062;2.986;2023-06-10T05:22:26;16.25;;;7.75;;
75928;SDS011;64606;44.062;2.986;2023-06-10T05:24:52;14.20;;;7.20;;
75928;SDS011;64606;44.062;2.986;2023-06-10T05:27:19;12.60;;;6.80;;
75928;SDS011;64606;44.062;2.986;2023-06-10T05:29:46;13.73;;;7.78;;
75928;SDS011;64606;44.062;2.986;2023-06-10T05:32:12;17.40;;;8.20;;
75928;SDS011;64606;44.062;2.986;2023-06-10T05:34:38;14.68;;;8.10;;
75928;SDS011;64606;44.062;2.986;2023-06-10T05:37:04;20.10;;;8.10;;
75928;SDS011;64606;44.062;2.986;2023-06-10T05:39:31;16.48;;;7.90;;
75928;SDS011;64606;44.062;2.986;2023-06-10T05:41:57;13.70;;;8.23;;
75928;SDS011;64606;44.062;2.986;2023-06-10T05:44:24;14.60;;;7.97;;
75928;SDS011;64606;44.062;2.986;2023-06-10T05:46:50;15.30;;;8.55;;
75928;SDS011;64606;44.062;2.986;2023-06-10T05:49:17;12.70;;;8.40;;
75928;SDS011;64606;44.062;2.986;2023-06-10T05:51:43;13.40;;;8.15;;
75928;SDS011;64606;44.062;2.986;2023-06-10T05:54:09;14.35;;;7.80;;
75928;SDS011;64606;44.062;2.986;2023-06-10T05:56:35;14.25;;;7.80;;
75928;SDS011;64606;44.062;2.986;2023-06-10T05:59:01;12.68;;;7.07;;
75928;SDS011;64606;44.062;2.986;2023-06-10T06:01:27;14.05;;;7.50;;
75928;SDS011;64606;44.062;2.986;2023-06-10T06:03:53;13.07;;;8.00;;
75928;SDS011;64606;44.062;2.986;2023-06-10T06:06:19;12.38;;;7.15;;
75928;SDS011;64606;44.062;2.986;2023-06-10T06:08:46;11.38;;;6.82;;
75928;SDS011;64606;44.062;2.986;2023-06-10T06:11:12;13.02;;;7.47;;
75928;SDS011;64606;44.062;2.986;2023-06-10T06:13:38;14.80;;;7.75;;
75928;SDS011;64606;44.062;2.986;2023-06-10T06:16:06;13.52;;;7.53;;
75928;SDS011;64606;44.062;2.986;2023-06-10T06:18:32;12.77;;;7.03;;
75928;SDS011;64606;44.062;2.986;2023-06-10T06:20:59;12.45;;;6.55;;
75928;SDS011;64606;44.062;2.986;2023-06-10T06:23:25;13.32;;;6.57;;
75928;SDS011;64606;44.062;2.986;2023-06-10T06:25:51;11.00;;;7.00;;
75928;SDS011;64606;44.062;2.986;2023-06-10T06:28:17;16.92;;;6.78;;
75928;SDS011;64606;44.062;2.986;2023-06-10T06:30:46;14.60;;;6.80;;
75928;SDS011;64606;44.062;2.986;2023-06-10T06:33:12;11.05;;;6.10;;
75928;SDS011;64606;44.062;2.986;2023-06-10T06:35:38;14.55;;;7.25;;
75928;SDS011;64606;44.062;2.986;2023-06-10T06:38:05;11.80;;;5.85;;
75928;SDS011;64606;44.062;2.986;2023-06-10T06:40:31;17.73;;;7.05;;
75928;SDS011;64606;44.062;2.986;2023-06-10T06:42:57;13.80;;;6.20;;
75928;SDS011;64606;44.062;2.986;2023-06-10T06:45:23;11.60;;;6.38;;
75928;SDS011;64606;44.062;2.986;2023-06-10T06:47:49;12.45;;;6.10;;
75928;SDS011;64606;44.062;2.986;2023-06-10T06:50:16;11.10;;;6.00;;
75928;SDS011;64606;44.062;2.986;2023-06-10T06:52:42;13.95;;;6.22;;
75928;SDS011;64606;44.062;2.986;2023-06-10T06:55:08;10.40;;;6.13;;
75928;SDS011;64606;44.062;2.986;2023-06-10T06:57:34;11.60;;;6.07;;
75928;SDS011;64606;44.062;2.986;2023-06-10T07:00:01;10.75;;;5.05;;
75928;SDS011;64606;44.062;2.986;2023-06-10T07:02:28;9.13;;;5.45;;
75928;SDS011;64606;44.062;2.986;2023-06-10T07:04:54;12.45;;;5.32;;
75928;SDS011;64606;44.062;2.986;2023-06-10T07:07:21;10.60;;;5.75;;
75928;SDS011;64606;44.062;2.986;2023-06-10T07:09:47;13.43;;;5.60;;
75928;SDS011;64606;44.062;2.986;2023-06-10T07:12:13;10.75;;;5.35;;
75928;SDS011;64606;44.062;2.986;2023-06-10T07:14:39;7.93;;;5.43;;
75928;SDS011;64606;44.062;2.986;2023-06-10T07:17:06;8.00;;;4.70;;
75928;SDS011;64606;44.062;2.986;2023-06-10T07:19:32;8.98;;;5.35;;
75928;SDS011;64606;44.062;2.986;2023-06-10T07:21:58;11.00;;;5.18;;
75928;SDS011;64606;44.062;2.986;2023-06-10T07:24:24;7.97;;;4.85;;
75928;SDS011;64606;44.062;2.986;2023-06-10T07:26:50;10.45;;;5.28;;
75928;SDS011;64606;44.062;2.986;2023-06-10T07:29:16;8.25;;;5.07;;
75928;SDS011;64606;44.062;2.986;2023-06-10T07:31:42;7.03;;;4.45;;
75928;SDS011;64606;44.062;2.986;2023-06-10T07:34:09;9.82;;;4.60;;
75928;SDS011;64606;44.062;2.986;2023-06-10T07:36:35;8.38;;;4.70;;
75928;SDS011;64606;44.062;2.986;2023-06-10T07:39:01;7.95;;;4.85;;
75928;SDS011;64606;44.062;2.986;2023-06-10T07:41:27;6.38;;;4.47;;
75928;SDS011;64606;44.062;2.986;2023-06-10T07:43:54;7.30;;;3.97;;
75928;SDS011;64606;44.062;2.986;2023-06-10T07:46:21;7.70;;;4.50;;
75928;SDS011;64606;44.062;2.986;2023-06-10T07:48:48;7.45;;;4.25;;
75928;SDS011;64606;44.062;2.986;2023-06-10T07:51:14;7.78;;;4.03;;
75928;SDS011;64606;44.062;2.986;2023-06-10T07:53:41;7.72;;;4.03;;
75928;SDS011;64606;44.062;2.986;2023-06-10T07:56:07;9.00;;;3.92;;
75928;SDS011;64606;44.062;2.986;2023-06-10T07:58:33;8.10;;;4.40;;
75928;SDS011;64606;44.062;2.986;2023-06-10T08:00:59;10.57;;;4.10;;
75928;SDS011;64606;44.062;2.986;2023-06-10T08:03:25;5.15;;;3.47;;
75928;SDS011;64606;44.062;2.986;2023-06-10T08:05:51;7.15;;;3.95;;
75928;SDS011;64606;44.062;2.986;2023-06-10T08:08:17;5.20;;;3.60;;
75928;SDS011;64606;44.062;2.986;2023-06-10T08:10:43;7.30;;;3.85;;
75928;SDS011;64606;44.062;2.986;2023-06-10T08:13:10;5.78;;;3.90;;
75928;SDS011;64606;44.062;2.986;2023-06-10T08:15:36;8.40;;;3.88;;
75928;SDS011;64606;44.062;2.986;2023-06-10T08:18:02;8.57;;;4.20;;
75928;SDS011;64606;44.062;2.986;2023-06-10T08:20:28;5.88;;;3.72;;
75928;SDS011;64606;44.062;2.986;2023-06-10T08:22:54;7.80;;;4.20;;
75928;SDS011;64606;44.062;2.986;2023-06-10T08:25:20;7.53;;;4.00;;
75928;SDS011;64606;44.062;2.986;2023-06-10T08:27:47;7.20;;;3.95;;
75928;SDS011;64606;44.062;2.986;2023-06-10T08:30:13;6.65;;;3.60;;
75928;SDS011;64606;44.062;2.986;2023-06-10T08:32:39;7.72;;;3.92;;
75928;SDS011;64606;44.062;2.986;2023-06-10T08:35:05;8.48;;;4.20;;
75928;SDS011;64606;44.062;2.986;2023-06-10T08:37:32;5.95;;;3.75;;
75928;SDS011;64606;44.062;2.986;2023-06-10T08:39:58;6.97;;;3.88;;
75928;SDS011;64606;44.062;2.986;2023-06-10T08:42:35;6.03;;;3.55;;
75928;SDS011;64606;44.062;2.986;2023-06-10T08:45:02;6.60;;;4.45;;
75928;SDS011;64606;44.062;2.986;2023-06-10T08:47:29;7.93;;;4.03;;
75928;SDS011;64606;44.062;2.986;2023-06-10T08:49:56;6.43;;;4.07;;
75928;SDS011;64606;44.062;2.986;2023-06-10T08:52:26;9.40;;;3.88;;
75928;SDS011;64606;44.062;2.986;2023-06-10T08:55:02;6.20;;;3.20;;
75928;SDS011;64606;44.062;2.986;2023-06-10T08:57:29;5.37;;;3.27;;
75928;SDS011;64606;44.062;2.986;2023-06-10T08:59:56;5.93;;;3.00;;
75928;SDS011;64606;44.062;2.986;2023-06-10T09:02:26;5.07;;;3.00;;
75928;SDS011;64606;44.062;2.986;2023-06-10T09:04:52;9.00;;;2.83;;
75928;SDS011;64606;44.062;2.986;2023-06-10T09:07:19;7.20;;;2.47;;
75928;SDS011;64606;44.062;2.986;2023-06-10T09:09:45;5.32;;;2.63;;
75928;SDS011;64606;44.062;2.986;2023-06-10T09:12:14;6.90;;;2.80;;
75928;SDS011;64606;44.062;2.986;2023-06-10T09:14:44;3.40;;;2.42;;
75928;SDS011;64606;44.062;2.986;2023-06-10T09:17:10;6.70;;;2.90;;
75928;SDS011;64606;44.062;2.986;2023-06-10T09:19:37;5.70;;;2.63;;
75928;SDS011;64606;44.062;2.986;2023-06-10T09:22:04;4.95;;;2.83;;
75928;SDS011;64606;44.062;2.986;2023-06-10T09:24:30;4.82;;;2.50;;
75928;SDS011;64606;44.062;2.986;2023-06-10T09:27:06;4.07;;;2.10;;
75928;SDS011;64606;44.062;2.986;2023-06-10T09:29:45;5.22;;;3.08;;
75928;SDS011;64606;44.062;2.986;2023-06-10T09:32:12;4.10;;;2.50;;
75928;SDS011;64606;44.062;2.986;2023-06-10T09:34:38;6.97;;;2.55;;
75928;SDS011;64606;44.062;2.986;2023-06-10T09:37:06;3.50;;;2.42;;
75928;SDS011;64606;44.062;2.986;2023-06-10T09:39:33;5.82;;;2.90;;
75928;SDS011;64606;44.062;2.986;2023-06-10T09:41:59;12.05;;;2.33;;
75928;SDS011;64606;44.062;2.986;2023-06-10T09:44:25;4.70;;;2.08;;
75928;SDS011;64606;44.062;2.986;2023-06-10T09:46:52;7.72;;;2.97;;
75928;SDS011;64606;44.062;2.986;2023-06-10T09:49:19;7.85;;;2.25;;
75928;SDS011;64606;44.062;2.986;2023-06-10T09:51:49;3.35;;;1.80;;
75928;SDS011;64606;44.062;2.986;2023-06-10T09:54:16;4.80;;;1.92;;
75928;SDS011;64606;44.062;2.986;2023-06-10T09:56:43;3.72;;;2.28;;
75928;SDS011;64606;44.062;2.986;2023-06-10T09:59:12;7.55;;;2.13;;
75928;SDS011;64606;44.062;2.986;2023-06-10T10:01:38;2.72;;;1.90;;
75928;SDS011;64606;44.062;2.986;2023-06-10T10:04:05;3.47;;;1.85;;
75928;SDS011;64606;44.062;2.986;2023-06-10T10:06:31;2.33;;;1.55;;
75928;SDS011;64606;44.062;2.986;2023-06-10T10:08:57;3.17;;;1.40;;
75928;SDS011;64606;44.062;2.986;2023-06-10T10:11:23;2.85;;;1.75;;
75928;SDS011;64606;44.062;2.986;2023-06-10T10:13:53;3.00;;;1.38;;
75928;SDS011;64606;44.062;2.986;2023-06-10T10:16:20;2.08;;;1.60;;
75928;SDS011;64606;44.062;2.986;2023-06-10T10:18:54;3.22;;;1.40;;
75928;SDS011;64606;44.062;2.986;2023-06-10T10:21:22;3.10;;;1.30;;
75928;SDS011;64606;44.062;2.986;2023-06-10T10:24:09;5.10;;;1.38;;
75928;SDS011;64606;44.062;2.986;2023-06-10T10:26:36;2.63;;;1.40;;
75928;SDS011;64606;44.062;2.986;2023-06-10T10:29:06;4.88;;;2.05;;
75928;SDS011;64606;44.062;2.986;2023-06-10T10:31:34;4.80;;;1.48;;
75928;SDS011;64606;44.062;2.986;2023-06-10T10:34:02;2.65;;;1.48;;
75928;SDS011;64606;44.062;2.986;2023-06-10T10:36:30;2.53;;;1.40;;
75928;SDS011;64606;44.062;2.986;2023-06-10T10:38:56;2.50;;;1.45;;
75928;SDS011;64606;44.062;2.986;2023-06-10T10:41:24;4.07;;;1.20;;
75928;SDS011;64606;44.062;2.986;2023-06-10T10:43:51;3.88;;;1.20;;
75928;SDS011;64606;44.062;2.986;2023-06-10T10:46:18;2.35;;;1.30;;
75928;SDS011;64606;44.062;2.986;2023-06-10T10:48:44;1.73;;;1.30;;
75928;SDS011;64606;44.062;2.986;2023-06-10T10:51:11;3.30;;;1.23;;
75928;SDS011;64606;44.062;2.986;2023-06-10T10:53:38;2.42;;;1.45;;
75928;SDS011;64606;44.062;2.986;2023-06-10T10:56:05;2.28;;;1.30;;
75928;SDS011;64606;44.062;2.986;2023-06-10T10:58:32;2.13;;;1.17;;
75928;SDS011;64606;44.062;2.986;2023-06-10T11:00:58;1.75;;;1.20;;
75928;SDS011;64606;44.062;2.986;2023-06-10T11:03:28;2.67;;;1.60;;
75928;SDS011;64606;44.062;2.986;2023-06-10T11:05:58;2.72;;;1.50;;
75928;SDS011;64606;44.062;2.986;2023-06-10T11:11:00;2.38;;;1.30;;
75928;SDS011;64606;44.062;2.986;2023-06-10T11:13:27;3.65;;;1.52;;
75928;SDS011;64606;44.062;2.986;2023-06-10T11:15:57;4.10;;;1.50;;
75928;SDS011;64606;44.062;2.986;2023-06-10T11:18:29;1.60;;;1.23;;
75928;SDS011;64606;44.062;2.986;2023-06-10T11:20:59;4.15;;;1.60;;
75928;SDS011;64606;44.062;2.986;2023-06-10T11:28:39;2.28;;;1.40;;
75928;SDS011;64606;44.062;2.986;2023-06-10T11:31:05;2.38;;;1.40;;
75928;SDS011;64606;44.062;2.986;2023-06-10T11:33:32;1.58;;;1.13;;
75928;SDS011;64606;44.062;2.986;2023-06-10T11:35:58;2.10;;;1.20;;
75928;SDS011;64606;44.062;2.986;2023-06-10T11:38:25;2.65;;;1.20;;
75928;SDS011;64606;44.062;2.986;2023-06-10T11:40:52;2.50;;;1.30;;
75928;SDS011;64606;44.062;2.986;2023-06-10T11:43:18;2.40;;;1.27;;
75928;SDS011;64606;44.062;2.986;2023-06-10T11:45:45;1.52;;;1.10;;
75928;SDS011;64606;44.062;2.986;2023-06-10T11:48:14;4.40;;;1.30;;
75928;SDS011;64606;44.062;2.986;2023-06-10T11:50:40;3.10;;;1.15;;
75928;SDS011;64606;44.062;2.986;2023-06-10T11:53:07;3.90;;;1.17;;
75928;SDS011;64606;44.062;2.986;2023-06-10T11:55:46;4.30;;;1.15;;
75928;SDS011;64606;44.062;2.986;2023-06-10T11:58:13;3.03;;;1.10;;
75928;SDS011;64606;44.062;2.986;2023-06-10T12:00:44;1.73;;;1.10;;
75928;SDS011;64606;44.062;2.986;2023-06-10T12:03:10;3.03;;;1.20;;
75928;SDS011;64606;44.062;2.986;2023-06-10T12:05:36;1.83;;;1.33;;
75928;SDS011;64606;44.062;2.986;2023-06-10T12:08:08;2.88;;;1.13;;
75928;SDS011;64606;44.062;2.986;2023-06-10T12:10:44;3.20;;;1.38;;
75928;SDS011;64606;44.062;2.986;2023-06-10T12:15:36;1.60;;;1.02;;
75928;SDS011;64606;44.062;2.986;2023-06-10T12:18:02;1.55;;;1.20;;
75928;SDS011;64606;44.062;2.986;2023-06-10T12:20:29;2.45;;;1.33;;
75928;SDS011;64606;44.062;2.986;2023-06-10T12:22:58;1.60;;;0.93;;
75928;SDS011;64606;44.062;2.986;2023-06-10T12:25:25;2.25;;;1.10;;
75928;SDS011;64606;44.062;2.986;2023-06-10T12:27:52;2.78;;;1.30;;
75928;SDS011;64606;44.062;2.986;2023-06-10T12:30:23;1.80;;;0.90;;
75928;SDS011;64606;44.062;2.986;2023-06-10T12:32:49;1.77;;;1.25;;
75928;SDS011;64606;44.062;2.986;2023-06-10T12:35:16;2.08;;;1.00;;
75928;SDS011;64606;44.062;2.986;2023-06-10T12:37:54;1.60;;;1.10;;
75928;SDS011;64606;44.062;2.986;2023-06-10T12:40:25;3.47;;;1.05;;
75928;SDS011;64606;44.062;2.986;2023-06-10T12:42:52;3.22;;;1.20;;
75928;SDS011;64606;44.062;2.986;2023-06-10T12:45:38;1.50;;;1.02;;
75928;SDS011;64606;44.062;2.986;2023-06-10T12:50:40;3.08;;;1.02;;
75928;SDS011;64606;44.062;2.986;2023-06-10T12:53:06;1.67;;;0.90;;
75928;SDS011;64606;44.062;2.986;2023-06-10T12:55:33;2.90;;;1.10;;
75928;SDS011;64606;44.062;2.986;2023-06-10T12:57:59;2.13;;;1.10;;
75928;SDS011;64606;44.062;2.986;2023-06-10T13:00:26;1.48;;;0.93;;
75928;SDS011;64606;44.062;2.986;2023-06-10T13:02:56;1.40;;;0.98;;
75928;SDS011;64606;44.062;2.986;2023-06-10T13:05:22;3.05;;;1.00;;
75928;SDS011;64606;44.062;2.986;2023-06-10T13:07:48;2.03;;;1.00;;
75928;SDS011;64606;44.062;2.986;2023-06-10T13:10:15;3.47;;;0.90;;
75928;SDS011;64606;44.062;2.986;2023-06-10T13:12:42;1.92;;;0.95;;
75928;SDS011;64606;44.062;2.986;2023-06-10T13:15:08;1.95;;;0.90;;
75928;SDS011;64606;44.062;2.986;2023-06-10T13:17:35;1.33;;;0.90;;
75928;SDS011;64606;44.062;2.986;2023-06-10T13:20:05;2.17;;;0.90;;
75928;SDS011;64606;44.062;2.986;2023-06-10T13:22:31;1.10;;;0.82;;
75928;SDS011;64606;44.062;2.986;2023-06-10T13:24:58;1.10;;;0.90;;
75928;SDS011;64606;44.062;2.986;2023-06-10T13:27:25;2.92;;;1.17;;
75928;SDS011;64606;44.062;2.986;2023-06-10T13:29:52;3.05;;;0.80;;
75928;SDS011;64606;44.062;2.986;2023-06-10T13:32:18;0.73;;;0.70;;
75928;SDS011;64606;44.062;2.986;2023-06-10T13:34:44;1.73;;;0.90;;
75928;SDS011;64606;44.062;2.986;2023-06-10T13:37:11;0.73;;;0.68;;
75928;SDS011;64606;44.062;2.986;2023-06-10T13:39:38;1.27;;;0.80;;
75928;SDS011;64606;44.062;2.986;2023-06-10T13:42:04;1.13;;;0.75;;
75928;SDS011;64606;44.062;2.986;2023-06-10T13:44:32;2.38;;;0.80;;
75928;SDS011;64606;44.062;2.986;2023-06-10T13:47:01;1.23;;;0.80;;
75928;SDS011;64606;44.062;2.986;2023-06-10T13:49:28;1.40;;;0.80;;
75928;SDS011;64606;44.062;2.986;2023-06-10T13:51:54;0.70;;;0.60;;
75928;SDS011;64606;44.062;2.986;2023-06-10T13:54:20;1.23;;;0.70;;
75928;SDS011;64606;44.062;2.986;2023-06-10T13:56:46;1.15;;;0.73;;
75928;SDS011;64606;44.062;2.986;2023-06-10T13:59:12;2.25;;;0.80;;
75928;SDS011;64606;44.062;2.986;2023-06-10T14:01:38;1.83;;;0.70;;
75928;SDS011;64606;44.062;2.986;2023-06-10T14:04:05;2.58;;;0.85;;
75928;SDS011;64606;44.062;2.986;2023-06-10T14:06:32;1.20;;;0.77;;
75928;SDS011;64606;44.062;2.986;2023-06-10T14:08:59;0.73;;;0.73;;
75928;SDS011;64606;44.062;2.986;2023-06-10T14:11:25;1.77;;;0.80;;
75928;SDS011;64606;44.062;2.986;2023-06-10T14:13:51;2.70;;;1.27;;
75928;SDS011;64606;44.062;2.986;2023-06-10T14:16:17;2.65;;;0.88;;
75928;SDS011;64606;44.062;2.986;2023-06-10T14:18:43;9.55;;;0.90;;
75928;SDS011;64606;44.062;2.986;2023-06-10T14:21:09;1.20;;;0.80;;
75928;SDS011;64606;44.062;2.986;2023-06-10T14:23:36;3.85;;;0.80;;
75928;SDS011;64606;44.062;2.986;2023-06-10T14:26:03;1.30;;;0.82;;
75928;SDS011;64606;44.062;2.986;2023-06-10T14:28:30;1.17;;;0.70;;
75928;SDS011;64606;44.062;2.986;2023-06-10T14:30:56;1.40;;;0.82;;
75928;SDS011;64606;44.062;2.986;2023-06-10T14:33:22;1.80;;;0.80;;
75928;SDS011;64606;44.062;2.986;2023-06-10T14:35:49;2.65;;;0.93;;
75928;SDS011;64606;44.062;2.986;2023-06-10T14:38:15;1.63;;;0.80;;
75928;SDS011;64606;44.062;2.986;2023-06-10T14:40:41;1.00;;;0.70;;
75928;SDS011;64606;44.062;2.986;2023-06-10T14:43:07;0.63;;;0.60;;
75928;SDS011;64606;44.062;2.986;2023-06-10T14:45:36;1.25;;;0.80;;
75928;SDS011;64606;44.062;2.986;2023-06-10T14:48:03;0.77;;;0.70;;
75928;SDS011;64606;44.062;2.986;2023-06-10T14:50:29;1.02;;;0.80;;
75928;SDS011;64606;44.062;2.986;2023-06-10T14:52:55;1.08;;;0.80;;
75928;SDS011;64606;44.062;2.986;2023-06-10T14:55:22;2.13;;;0.60;;
75928;SDS011;64606;44.062;2.986;2023-06-10T14:57:48;1.30;;;0.80;;